createdAt,value
2022-09-15T00:01:56.909Z,18.00
2022-09-15T00:04:23.981Z,18.00
2022-09-15T00:06:50.978Z,18.00
2022-09-15T00:09:17.982Z,18.00
2022-09-15T00:11:44.982Z,18.00
2022-09-15T00:14:12.058Z,18.00
2022-09-15T00:16:39.157Z,17.90
2022-09-15T00:19:06.723Z,17.90
2022-09-15T00:21:34.280Z,17.90
2022-09-15T00:24:01.545Z,17.90
2022-09-15T00:26:29.031Z,17.90
2022-09-15T00:28:56.481Z,17.90
2022-09-15T00:31:24.183Z,17.80
2022-09-15T00:33:51.835Z,17.80
2022-09-15T00:36:19.080Z,17.80
2022-09-15T00:38:46.078Z,17.70
2022-09-15T00:41:14.166Z,17.70
2022-09-15T00:43:42.319Z,17.70
2022-09-15T00:46:09.525Z,17.60
2022-09-15T00:48:37.550Z,17.50
2022-09-15T00:51:04.567Z,17.50
2022-09-15T00:53:31.636Z,17.50
2022-09-15T00:55:59.111Z,17.50
2022-09-15T00:58:30.575Z,17.50
2022-09-15T01:00:58.393Z,17.50
2022-09-15T01:03:25.575Z,17.50
2022-09-15T01:05:54.345Z,17.50
2022-09-15T01:08:24.647Z,17.40
2022-09-15T01:10:52.027Z,17.40
2022-09-15T01:13:19.051Z,17.30
2022-09-15T01:15:49.057Z,17.30
2022-09-15T01:18:19.108Z,17.30
2022-09-15T01:20:55.371Z,17.30
2022-09-15T01:23:41.438Z,17.30
2022-09-15T01:26:27.559Z,17.30
2022-09-15T01:28:54.578Z,17.30
2022-09-15T01:31:34.046Z,17.30
2022-09-15T01:34:03.075Z,17.40
2022-09-15T01:36:47.434Z,17.40
2022-09-15T01:39:19.028Z,17.40
2022-09-15T01:41:47.343Z,17.50
2022-09-15T01:44:15.581Z,17.50
2022-09-15T01:46:46.877Z,17.60
2022-09-15T01:49:17.941Z,17.70
2022-09-15T01:51:44.978Z,17.70
2022-09-15T01:54:12.097Z,17.70
2022-09-15T01:56:39.106Z,17.80
2022-09-15T01:59:06.111Z,17.80
2022-09-15T02:01:49.613Z,17.80
2022-09-15T02:04:21.839Z,17.80
2022-09-15T02:07:07.942Z,17.80
2022-09-15T02:09:36.471Z,17.80
2022-09-15T02:12:07.700Z,17.80
2022-09-15T02:14:38.997Z,17.80
2022-09-15T02:17:05.982Z,17.90
2022-09-15T02:19:34.204Z,17.90
2022-09-15T02:22:11.033Z,17.90
2022-09-15T02:24:39.693Z,17.90
2022-09-15T02:27:08.114Z,17.90
2022-09-15T02:29:36.115Z,17.90
2022-09-15T02:32:07.095Z,17.90
2022-09-15T02:34:35.345Z,17.90
2022-09-15T02:37:04.447Z,17.90
2022-09-15T02:39:33.150Z,17.80
2022-09-15T02:42:02.280Z,17.80
2022-09-15T02:44:30.913Z,17.80
2022-09-15T02:46:58.192Z,17.80
2022-09-15T02:49:25.217Z,17.80
2022-09-15T02:51:52.227Z,17.80
2022-09-15T02:54:19.213Z,17.70
2022-09-15T02:56:47.491Z,17.70
2022-09-15T02:59:14.498Z,17.70
2022-09-15T03:01:41.823Z,17.70
2022-09-15T03:04:08.914Z,17.70
2022-09-15T03:06:36.084Z,17.70
2022-09-15T03:09:04.623Z,17.60
2022-09-15T03:11:32.102Z,17.60
2022-09-15T03:14:00.055Z,17.60
2022-09-15T03:16:27.465Z,17.60
2022-09-15T03:18:55.055Z,17.60
2022-09-15T03:21:22.197Z,17.50
2022-09-15T03:23:49.213Z,17.60
2022-09-15T03:26:16.243Z,17.50
2022-09-15T03:28:43.339Z,17.50
2022-09-15T03:31:10.411Z,17.50
2022-09-15T03:33:37.508Z,17.50
2022-09-15T03:36:04.778Z,17.50
2022-09-15T03:38:31.817Z,17.50
2022-09-15T03:40:59.605Z,17.50
2022-09-15T03:43:27.108Z,17.50
2022-09-15T03:45:54.547Z,17.50
2022-09-15T03:48:21.839Z,17.50
2022-09-15T03:50:49.204Z,17.50
2022-09-15T03:53:16.237Z,17.60
2022-09-15T03:55:43.686Z,17.50
2022-09-15T03:58:11.078Z,17.60
2022-09-15T04:00:38.363Z,17.50
2022-09-15T04:03:06.666Z,17.50
2022-09-15T04:05:34.022Z,17.50
2022-09-15T04:08:01.047Z,17.50
2022-09-15T04:10:28.223Z,17.60
2022-09-15T04:12:55.301Z,17.60
2022-09-15T04:15:22.553Z,17.60
2022-09-15T04:17:49.553Z,17.60
2022-09-15T04:20:17.148Z,17.70
2022-09-15T04:22:44.604Z,17.70
2022-09-15T04:25:11.999Z,17.70
2022-09-15T04:27:39.036Z,17.70
2022-09-15T04:30:06.748Z,17.70
2022-09-15T04:32:35.531Z,17.70
2022-09-15T04:35:02.948Z,17.70
2022-09-15T04:37:30.090Z,17.70
2022-09-15T04:39:57.403Z,17.80
2022-09-15T04:42:24.462Z,17.70
2022-09-15T04:44:51.481Z,17.80
2022-09-15T04:47:19.201Z,17.80
2022-09-15T04:49:46.248Z,17.80
2022-09-15T04:52:13.255Z,17.80
2022-09-15T04:54:40.306Z,17.80
2022-09-15T04:57:07.376Z,17.80
2022-09-15T04:59:34.382Z,17.80
2022-09-15T05:02:01.476Z,17.80
2022-09-15T05:04:28.561Z,17.80
2022-09-15T05:06:55.594Z,17.80
2022-09-15T05:09:22.723Z,17.80
2022-09-15T05:11:49.718Z,17.80
2022-09-15T05:14:16.847Z,17.80
2022-09-15T05:16:43.946Z,17.80
2022-09-15T05:19:11.487Z,17.80
2022-09-15T05:21:38.527Z,17.80
2022-09-15T05:24:05.631Z,17.80
2022-09-15T05:26:32.647Z,17.80
2022-09-15T05:28:59.665Z,17.90
2022-09-15T05:31:27.660Z,17.90
2022-09-15T05:33:54.780Z,17.80
2022-09-15T05:36:25.257Z,17.80
2022-09-15T05:38:53.299Z,17.80
2022-09-15T05:41:20.815Z,17.90
2022-09-15T05:43:48.092Z,17.80
2022-09-15T05:46:15.298Z,17.80
2022-09-15T05:48:42.359Z,17.80
2022-09-15T05:51:09.378Z,17.80
2022-09-15T05:53:36.486Z,17.80
2022-09-15T05:56:05.136Z,17.90
2022-09-15T05:58:32.374Z,17.90
2022-09-15T06:01:07.177Z,17.90
2022-09-15T06:03:35.291Z,17.90
2022-09-15T06:06:02.671Z,18.00
2022-09-15T06:08:30.286Z,18.00
2022-09-15T06:11:10.077Z,18.00
2022-09-15T06:13:37.256Z,18.00
2022-09-15T06:16:05.379Z,18.00
2022-09-15T06:18:32.652Z,18.00
2022-09-15T06:21:03.018Z,18.10
2022-09-15T06:23:30.009Z,18.00
2022-09-15T06:25:57.123Z,18.00
2022-09-15T06:28:24.963Z,18.00
2022-09-15T06:30:51.978Z,18.00
2022-09-15T06:33:18.964Z,18.00
2022-09-15T06:35:45.966Z,18.00
2022-09-15T06:38:13.354Z,18.00
2022-09-15T06:40:40.370Z,18.00
2022-09-15T06:43:07.474Z,18.00
2022-09-15T06:45:34.464Z,18.00
2022-09-15T06:48:23.301Z,17.90
2022-09-15T06:50:52.995Z,17.70
2022-09-15T06:53:20.090Z,17.60
2022-09-15T06:55:47.091Z,17.40
2022-09-15T06:58:14.115Z,17.30
2022-09-15T07:00:41.126Z,17.10
2022-09-15T07:03:08.283Z,16.90
2022-09-15T07:05:35.467Z,16.90
2022-09-15T07:08:02.754Z,16.80
2022-09-15T07:10:29.766Z,16.80
2022-09-15T07:12:58.849Z,16.80
2022-09-15T07:15:27.362Z,16.80
2022-09-15T07:17:54.611Z,16.90
2022-09-15T07:20:21.760Z,16.90
2022-09-15T07:22:48.771Z,16.90
2022-09-15T07:25:15.786Z,17.00
2022-09-15T07:27:42.939Z,17.10
2022-09-15T07:30:10.889Z,17.20
2022-09-15T07:32:37.905Z,17.20
2022-09-15T07:35:05.833Z,17.20
2022-09-15T07:37:33.220Z,17.30
2022-09-15T07:40:00.365Z,17.50
2022-09-15T07:42:32.060Z,17.60
2022-09-15T07:45:01.735Z,17.80
2022-09-15T07:47:28.771Z,18.00
2022-09-15T07:49:55.799Z,18.10
2022-09-15T07:52:22.818Z,18.20
2022-09-15T07:54:49.825Z,18.20
2022-09-15T07:57:16.824Z,18.30
2022-09-15T07:59:43.815Z,18.30
2022-09-15T08:02:20.493Z,18.40
2022-09-15T08:04:47.566Z,18.40
2022-09-15T08:07:14.572Z,18.30
2022-09-15T08:09:41.575Z,18.30
2022-09-15T08:12:08.954Z,18.30
2022-09-15T08:14:36.046Z,18.30
2022-09-15T08:17:08.171Z,18.30
2022-09-15T08:19:37.955Z,18.30
2022-09-15T08:22:05.570Z,18.40
2022-09-15T08:24:32.651Z,18.40
2022-09-15T08:26:59.658Z,18.50
2022-09-15T08:29:26.642Z,18.50
2022-09-15T08:31:53.664Z,18.60
2022-09-15T08:34:21.535Z,18.70
2022-09-15T08:36:48.583Z,18.70
2022-09-15T08:39:15.588Z,18.80
2022-09-15T08:41:42.617Z,19.00
2022-09-15T08:44:25.038Z,19.10
2022-09-15T08:46:52.080Z,19.10
2022-09-15T08:49:40.854Z,19.20
2022-09-15T08:52:10.588Z,19.50
2022-09-15T08:54:37.651Z,19.80
2022-09-15T08:57:04.675Z,20.00
2022-09-15T08:59:32.358Z,20.20
2022-09-15T09:02:02.534Z,20.20
2022-09-15T09:04:29.642Z,20.00
2022-09-15T09:07:15.124Z,20.00
2022-09-15T09:09:47.256Z,19.90
2022-09-15T09:12:32.720Z,19.90
2022-09-15T09:14:59.818Z,19.80
2022-09-15T09:17:33.302Z,19.80
2022-09-15T09:20:03.471Z,19.80
2022-09-15T09:22:32.298Z,19.80
2022-09-15T09:24:59.886Z,19.70
2022-09-15T09:27:28.732Z,19.70
2022-09-15T09:30:00.407Z,19.60
2022-09-15T09:32:32.026Z,19.60
2022-09-15T09:35:00.931Z,19.60
2022-09-15T09:37:27.921Z,19.60
2022-09-15T09:39:54.966Z,19.60
2022-09-15T09:42:23.444Z,19.60
2022-09-15T09:44:50.883Z,19.50
2022-09-15T09:47:17.893Z,19.50
2022-09-15T09:49:48.371Z,19.60
2022-09-15T09:52:35.780Z,19.70
2022-09-15T09:55:03.891Z,19.70
2022-09-15T09:57:31.214Z,19.80
2022-09-15T09:59:58.262Z,20.00
2022-09-15T10:02:26.046Z,20.20
2022-09-15T10:04:53.117Z,20.30
2022-09-15T10:07:21.483Z,20.60
2022-09-15T10:09:58.186Z,20.70
2022-09-15T10:12:27.124Z,20.70
2022-09-15T10:14:54.894Z,20.70
2022-09-15T10:17:22.899Z,20.70
2022-09-15T10:19:56.545Z,20.70
2022-09-15T10:22:33.755Z,20.60
2022-09-15T10:25:01.136Z,20.70
2022-09-15T10:27:31.991Z,20.80
2022-09-15T10:29:59.621Z,21.00
2022-09-15T10:32:30.891Z,21.00
2022-09-15T10:34:58.423Z,20.90
2022-09-15T10:37:32.470Z,20.90
2022-09-15T10:40:00.168Z,20.90
2022-09-15T10:42:33.841Z,20.90
2022-09-15T10:45:03.870Z,20.90
2022-09-15T10:47:36.995Z,20.80
2022-09-15T10:50:03.998Z,20.70
2022-09-15T10:52:37.695Z,20.70
2022-09-15T10:55:22.078Z,20.70
2022-09-15T10:58:02.062Z,20.90
2022-09-15T11:00:32.763Z,20.80
2022-09-15T11:03:18.507Z,20.90
2022-09-15T11:05:52.139Z,21.00
2022-09-15T11:08:23.586Z,21.10
2022-09-15T11:10:53.715Z,21.30
2022-09-15T11:13:33.743Z,21.40
2022-09-15T11:16:20.090Z,21.40
2022-09-15T11:18:52.956Z,21.20
2022-09-15T11:21:25.491Z,21.10
2022-09-15T11:24:04.767Z,21.10
2022-09-15T11:26:34.891Z,21.00
2022-09-15T11:29:14.890Z,21.00
2022-09-15T11:31:42.694Z,20.90
2022-09-15T11:34:09.784Z,20.90
2022-09-15T11:36:53.778Z,20.90
2022-09-15T11:39:22.427Z,20.90
2022-09-15T11:42:01.082Z,20.90
2022-09-15T11:44:29.451Z,20.90
2022-09-15T11:47:05.340Z,20.90
2022-09-15T11:49:41.415Z,20.80
2022-09-15T11:52:18.952Z,20.90
2022-09-15T11:54:46.977Z,21.10
2022-09-15T11:57:18.763Z,21.20
2022-09-15T11:59:54.394Z,21.00
2022-09-15T12:02:30.654Z,20.90
2022-09-15T12:05:07.133Z,20.70
2022-09-15T12:07:35.995Z,20.60
2022-09-15T12:10:10.188Z,20.60
2022-09-15T12:12:37.299Z,20.50
2022-09-15T12:15:04.482Z,20.50
2022-09-15T12:17:35.692Z,20.40
2022-09-15T12:20:04.342Z,20.40
2022-09-15T12:22:32.096Z,20.50
2022-09-15T12:25:01.479Z,20.50
2022-09-15T12:27:28.609Z,20.40
2022-09-15T12:29:56.226Z,20.30
2022-09-15T12:32:24.741Z,20.10
2022-09-15T12:34:54.724Z,19.80
2022-09-15T12:37:21.746Z,19.50
2022-09-15T12:39:48.840Z,19.40
2022-09-15T12:42:23.194Z,19.50
2022-09-15T12:44:59.435Z,19.70
2022-09-15T12:47:31.786Z,19.80
2022-09-15T12:50:00.947Z,20.00
2022-09-15T12:52:27.934Z,20.30
2022-09-15T12:55:01.714Z,20.60
2022-09-15T12:57:37.915Z,20.70
2022-09-15T13:00:20.552Z,20.80
2022-09-15T13:02:48.224Z,21.10
2022-09-15T13:05:35.240Z,21.20
2022-09-15T13:08:02.259Z,21.30
2022-09-15T13:10:33.364Z,21.50
2022-09-15T13:13:05.602Z,21.20
2022-09-15T13:15:32.649Z,21.10
2022-09-15T13:17:59.675Z,21.40
2022-09-15T13:20:30.594Z,21.40
2022-09-15T13:22:57.627Z,21.30
2022-09-15T13:25:26.159Z,21.20
2022-09-15T13:27:57.580Z,21.10
2022-09-15T13:30:43.500Z,21.10
2022-09-15T13:33:10.731Z,21.20
2022-09-15T13:35:56.687Z,21.20
2022-09-15T13:38:42.530Z,21.30
2022-09-15T13:41:33.199Z,21.40
2022-09-15T13:44:19.076Z,21.50
2022-09-15T13:46:55.266Z,21.60
2022-09-15T13:49:22.252Z,21.70
2022-09-15T13:51:55.347Z,21.60
2022-09-15T13:54:22.346Z,21.30
2022-09-15T13:56:53.038Z,21.10
2022-09-15T13:59:24.823Z,20.90
2022-09-15T14:01:52.982Z,20.80
2022-09-15T14:04:24.407Z,20.70
2022-09-15T14:06:53.619Z,20.90
2022-09-15T14:09:23.738Z,21.00
2022-09-15T14:11:51.855Z,21.00
2022-09-15T14:14:27.970Z,20.90
2022-09-15T14:16:55.604Z,20.70
2022-09-15T14:19:31.101Z,20.50
2022-09-15T14:21:59.071Z,20.30
2022-09-15T14:24:29.987Z,20.20
2022-09-15T14:26:58.374Z,20.00
2022-09-15T14:29:25.955Z,19.90
2022-09-15T14:31:53.348Z,19.90
2022-09-15T14:34:21.374Z,19.80
2022-09-15T14:36:57.603Z,19.80
2022-09-15T14:39:24.772Z,19.70
2022-09-15T14:41:51.811Z,19.60
2022-09-15T14:45:53.974Z,19.60
2022-09-15T14:47:10.539Z,19.50
2022-09-15T14:49:37.570Z,19.50
2022-09-15T14:52:04.618Z,19.50
2022-09-15T14:54:33.123Z,19.40
2022-09-15T14:57:00.973Z,19.10
2022-09-15T14:59:31.125Z,18.70
2022-09-15T15:02:01.179Z,17.90
2022-09-15T15:04:35.038Z,17.30
2022-09-15T15:07:05.079Z,16.70
2022-09-15T15:09:35.266Z,16.40
2022-09-15T15:12:04.809Z,16.20
2022-09-15T15:14:31.863Z,16.10
2022-09-15T15:17:00.041Z,15.90
2022-09-15T15:19:30.981Z,15.90
2022-09-15T15:22:27.134Z,15.90
2022-09-15T15:24:54.153Z,16.00
2022-09-15T15:27:25.275Z,16.00
2022-09-15T15:29:52.779Z,15.90
2022-09-15T15:32:23.098Z,16.00
2022-09-15T15:34:50.097Z,16.00
2022-09-15T15:37:32.653Z,15.90
2022-09-15T15:40:01.051Z,15.90
2022-09-15T15:42:28.739Z,15.90
2022-09-15T15:45:08.275Z,15.90
2022-09-15T15:47:35.818Z,15.90
2022-09-15T15:50:14.420Z,15.90
2022-09-15T15:52:41.983Z,15.90
2022-09-15T15:55:12.151Z,15.90
2022-09-15T15:57:39.262Z,15.90
2022-09-15T16:00:21.997Z,15.90
2022-09-15T16:02:52.428Z,15.90
2022-09-15T16:05:19.728Z,15.90
2022-09-15T16:07:46.763Z,15.90
2022-09-15T16:10:14.619Z,15.90
2022-09-15T16:12:41.664Z,15.90
2022-09-15T16:15:15.726Z,15.90
2022-09-15T16:17:46.074Z,15.90
2022-09-15T16:20:15.904Z,15.90
2022-09-15T16:22:43.267Z,15.90
2022-09-15T16:25:14.637Z,15.70
2022-09-15T16:27:41.649Z,15.70
2022-09-15T16:30:11.891Z,15.60
2022-09-15T16:32:39.800Z,15.60
2022-09-15T16:35:14.775Z,15.50
2022-09-15T16:37:41.783Z,15.50
2022-09-15T16:40:08.957Z,15.50
2022-09-15T16:42:35.982Z,15.30
2022-09-15T16:45:03.054Z,15.20
2022-09-15T16:47:30.050Z,15.00
2022-09-15T16:49:57.058Z,14.90
2022-09-15T16:52:24.077Z,14.70
2022-09-15T16:54:51.093Z,14.60
2022-09-15T16:57:19.379Z,14.60
2022-09-15T16:59:46.416Z,14.60
2022-09-15T17:02:13.839Z,14.50
2022-09-15T17:04:40.906Z,14.50
2022-09-15T17:07:07.996Z,14.40
2022-09-15T17:09:34.999Z,14.40
2022-09-15T17:12:02.145Z,14.30
2022-09-15T17:14:29.218Z,14.30
2022-09-15T17:16:56.256Z,14.30
2022-09-15T17:19:23.594Z,14.30
2022-09-15T17:21:52.555Z,14.30
2022-09-15T17:24:19.567Z,14.30
2022-09-15T17:26:46.646Z,14.30
2022-09-15T17:29:13.674Z,14.30
2022-09-15T17:31:40.713Z,14.30
2022-09-15T17:34:10.219Z,14.20
2022-09-15T17:36:37.261Z,14.30
2022-09-15T17:39:04.253Z,14.30
2022-09-15T17:41:31.271Z,14.20
2022-09-15T17:43:58.258Z,14.20
2022-09-15T17:46:25.288Z,14.20
2022-09-15T17:48:52.374Z,14.20
2022-09-15T17:51:19.381Z,14.20
2022-09-15T17:53:47.558Z,14.20
2022-09-15T17:56:14.602Z,14.10
2022-09-15T17:58:41.814Z,14.10
2022-09-15T18:01:10.639Z,14.10
2022-09-15T18:03:37.808Z,14.10
2022-09-15T18:06:06.278Z,14.10
2022-09-15T18:08:33.350Z,14.10
2022-09-15T18:11:00.461Z,14.10
2022-09-15T18:13:27.992Z,14.10
2022-09-15T18:15:55.399Z,14.20
2022-09-15T18:18:23.850Z,14.10
2022-09-15T18:20:51.463Z,14.10
2022-09-15T18:23:22.018Z,14.10
2022-09-15T18:25:49.173Z,14.10
2022-09-15T18:28:16.240Z,14.10
2022-09-15T18:30:44.131Z,14.10
2022-09-15T18:33:13.048Z,14.10
2022-09-15T18:35:40.643Z,14.20
2022-09-15T18:38:07.709Z,14.10
2022-09-15T18:40:34.721Z,14.10
2022-09-15T18:43:01.801Z,14.10
2022-09-15T18:45:28.791Z,14.10
2022-09-15T18:47:55.816Z,14.10
2022-09-15T18:50:23.469Z,14.10
2022-09-15T18:52:50.506Z,14.00
2022-09-15T18:55:18.355Z,14.00
2022-09-15T18:57:45.506Z,14.00
2022-09-15T19:00:13.928Z,14.00
2022-09-15T19:02:41.032Z,14.00
2022-09-15T19:05:08.178Z,14.00
2022-09-15T19:07:35.192Z,14.00
2022-09-15T19:10:02.195Z,14.00
2022-09-15T19:12:29.201Z,14.00
2022-09-15T19:14:56.225Z,13.90
2022-09-15T19:17:23.213Z,14.00
2022-09-15T19:19:50.255Z,14.00
2022-09-15T19:22:17.243Z,13.90
2022-09-15T19:24:44.250Z,14.00
2022-09-15T19:27:11.271Z,13.90
2022-09-15T19:29:38.857Z,13.90
2022-09-15T19:32:07.367Z,13.90
2022-09-15T19:34:34.550Z,13.90
2022-09-15T19:37:01.559Z,13.90
2022-09-15T19:39:29.917Z,13.90
2022-09-15T19:41:57.088Z,13.90
2022-09-15T19:44:24.106Z,13.90
2022-09-15T19:46:51.194Z,13.90
2022-09-15T19:49:18.236Z,13.90
2022-09-15T19:51:45.248Z,13.80
2022-09-15T19:54:12.364Z,13.80
2022-09-15T19:56:39.401Z,13.80
2022-09-15T19:59:07.049Z,13.80
2022-09-15T20:01:34.223Z,13.80
2022-09-15T20:04:01.915Z,13.80
2022-09-15T20:06:32.482Z,13.80
2022-09-15T20:08:59.985Z,13.70
2022-09-15T20:11:27.346Z,13.80
2022-09-15T20:13:54.541Z,13.70
2022-09-15T20:16:22.084Z,13.70
2022-09-15T20:18:49.421Z,13.70
2022-09-15T20:21:32.512Z,13.70
2022-09-15T20:24:07.606Z,13.70
2022-09-15T20:26:34.662Z,13.80
2022-09-15T20:29:02.181Z,13.80
2022-09-15T20:31:29.447Z,13.70
2022-09-15T20:33:56.541Z,13.80
2022-09-15T20:36:24.547Z,13.70
2022-09-15T20:38:51.895Z,13.70
2022-09-15T20:41:19.846Z,13.80
2022-09-15T20:43:46.868Z,13.70
2022-09-15T20:46:14.576Z,13.70
2022-09-15T20:48:41.718Z,13.70
2022-09-15T20:51:11.805Z,13.70
2022-09-15T20:53:39.469Z,13.80
2022-09-15T20:56:06.650Z,13.70
2022-09-15T20:58:34.462Z,13.70
2022-09-15T21:01:02.230Z,13.70
2022-09-15T21:03:29.463Z,13.70
2022-09-15T21:06:00.491Z,13.80
2022-09-15T21:08:28.211Z,13.70
2022-09-15T21:10:55.250Z,13.80
2022-09-15T21:13:22.494Z,13.80
2022-09-15T21:15:59.197Z,13.80
2022-09-15T21:18:26.510Z,13.80
2022-09-15T21:20:54.265Z,13.90
2022-09-15T21:23:21.370Z,14.10
2022-09-15T21:25:58.808Z,14.10
2022-09-15T21:28:29.187Z,14.20
2022-09-15T21:31:06.057Z,14.30
2022-09-15T21:33:33.211Z,14.20
2022-09-15T21:36:06.563Z,14.10
2022-09-15T21:38:34.420Z,14.10
2022-09-15T21:41:01.474Z,14.10
2022-09-15T21:43:29.074Z,14.00
2022-09-15T21:45:56.597Z,14.00
2022-09-15T21:48:23.921Z,13.90
2022-09-15T21:50:51.270Z,13.80
2022-09-15T21:53:18.383Z,13.80
2022-09-15T21:55:45.850Z,13.90
2022-09-15T21:58:12.910Z,13.90
2022-09-15T22:00:41.073Z,13.80
2022-09-15T22:03:08.206Z,13.70
2022-09-15T22:05:35.202Z,13.70
2022-09-15T22:08:04.938Z,13.80
2022-09-15T22:10:32.227Z,13.80
2022-09-15T22:12:59.392Z,13.80
2022-09-15T22:15:26.409Z,13.80
2022-09-15T22:17:53.424Z,13.80
2022-09-15T22:20:20.622Z,13.90
2022-09-15T22:22:47.731Z,14.00
2022-09-15T22:25:19.803Z,14.10
2022-09-15T22:27:48.757Z,14.00
2022-09-15T22:30:15.801Z,13.90
2022-09-15T22:32:42.998Z,13.80
2022-09-15T22:35:10.552Z,13.80
2022-09-15T22:37:37.560Z,13.80
2022-09-15T22:40:05.058Z,13.80
2022-09-15T22:42:32.135Z,13.70
2022-09-15T22:44:59.483Z,13.70
2022-09-15T22:47:26.638Z,13.70
2022-09-15T22:49:53.643Z,13.60
2022-09-15T22:52:21.290Z,13.70
2022-09-15T22:54:48.392Z,13.80
2022-09-15T22:57:15.395Z,13.90
2022-09-15T22:59:42.407Z,14.00
2022-09-15T23:02:09.591Z,13.90
2022-09-15T23:04:36.675Z,13.90
2022-09-15T23:07:04.338Z,14.00
2022-09-15T23:09:31.328Z,14.00
2022-09-15T23:11:58.409Z,14.00
2022-09-15T23:14:25.603Z,14.00
2022-09-15T23:16:52.621Z,14.00
2022-09-15T23:19:19.663Z,13.90
2022-09-15T23:21:46.671Z,13.90
2022-09-15T23:24:13.863Z,13.80
2022-09-15T23:26:40.970Z,13.80
2022-09-15T23:29:08.070Z,13.70
2022-09-15T23:31:35.183Z,13.60
2022-09-15T23:34:02.357Z,13.60
2022-09-15T23:36:29.518Z,13.70
2022-09-15T23:38:56.511Z,13.70
2022-09-15T23:41:24.592Z,13.70
2022-09-15T23:43:51.640Z,13.70
2022-09-15T23:46:18.673Z,13.80
2022-09-15T23:48:45.791Z,13.80
2022-09-15T23:51:12.816Z,13.70
2022-09-15T23:53:39.901Z,13.60
2022-09-15T23:56:06.994Z,13.60
2022-09-15T23:58:34.001Z,13.60
